Time;durP1;ratioP1;P1;durP2;ratioP2;P2;SDS_P1;SDS_P2;PMS_P1;PMS_P2;Temp;Humidity;BMP_temperature;BMP_pressure;BME280_temperature;BME280_humidity;BME280_pressure;Samples;Min_cycle;Max_cycle;Signal;HPM_P1;HPM_P2
2023/12/17 00:00:59;;;;;;;5.95;2.40;;;9.90;99.90;;;;;;6145471;23;19927;-34
2023/12/17 00:03:26;;;;;;;9.63;2.65;;;9.90;99.90;;;;;;6146204;23;20108;-35
2023/12/17 00:05:52;;;;;;;5.80;2.13;;;9.90;99.90;;;;;;6146492;23;20097;-34
2023/12/17 00:08:20;;;;;;;8.00;2.60;;;10.00;99.90;;;;;;6145928;23;20021;-34
2023/12/17 00:10:49;;;;;;;7.38;2.63;;;9.90;99.90;;;;;;6145655;23;20033;-34
2023/12/17 00:13:16;;;;;;;8.55;2.65;;;9.90;99.90;;;;;;6146484;23;20025;-34
2023/12/17 00:15:41;;;;;;;7.50;2.78;;;9.90;99.90;;;;;;6146038;23;20484;-34
2023/12/17 00:18:07;;;;;;;6.85;2.47;;;9.90;99.90;;;;;;6147122;23;20026;-34
2023/12/17 00:20:33;;;;;;;7.32;2.63;;;9.90;99.90;;;;;;6147579;23;20381;-34
2023/12/17 00:22:59;;;;;;;7.75;2.67;;;9.90;99.90;;;;;;6147126;23;20022;-34
2023/12/17 00:25:25;;;;;;;6.32;2.65;;;9.90;99.90;;;;;;6146576;23;20030;-34
2023/12/17 00:27:50;;;;;;;12.15;2.88;;;9.90;99.90;;;;;;6148130;23;20025;-34
2023/12/17 00:30:16;;;;;;;7.90;2.78;;;9.90;99.90;;;;;;6149016;23;20033;-34
2023/12/17 00:32:42;;;;;;;6.88;2.90;;;9.90;99.90;;;;;;6147704;23;20174;-34
2023/12/17 00:35:08;;;;;;;9.82;3.72;;;9.80;99.90;;;;;;6148338;23;20072;-34
2023/12/17 00:37:33;;;;;;;9.75;3.90;;;9.80;99.90;;;;;;6149874;23;20640;-34
2023/12/17 00:39:59;;;;;;;10.65;4.38;;;9.80;99.90;;;;;;6148639;23;20112;-34
2023/12/17 00:42:24;;;;;;;11.75;4.10;;;9.90;99.90;;;;;;6148376;23;20021;-34
2023/12/17 00:44:50;;;;;;;11.57;4.03;;;9.90;99.90;;;;;;6148804;23;20060;-34
2023/12/17 00:47:16;;;;;;;7.05;4.10;;;9.80;99.90;;;;;;6147849;23;20022;-34
2023/12/17 00:49:41;;;;;;;7.72;4.00;;;9.90;99.90;;;;;;6149741;23;20021;-34
2023/12/17 00:52:07;;;;;;;7.40;3.78;;;9.90;99.90;;;;;;6148017;23;20349;-34
2023/12/17 00:54:33;;;;;;;9.25;4.57;;;9.80;99.90;;;;;;6148220;23;20021;-35
2023/12/17 00:56:58;;;;;;;7.18;3.88;;;9.80;99.90;;;;;;6147807;23;20029;-34
2023/12/17 00:59:24;;;;;;;7.82;3.90;;;9.80;99.90;;;;;;6147958;23;20030;-34
2023/12/17 01:01:51;;;;;;;8.05;3.75;;;9.80;99.90;;;;;;6148242;23;20341;-34
2023/12/17 01:04:17;;;;;;;7.47;3.80;;;9.80;99.90;;;;;;6170989;23;20032;-34
2023/12/17 01:06:42;;;;;;;9.80;4.55;;;9.80;99.90;;;;;;6148007;23;20052;-34
2023/12/17 01:09:10;;;;;;;12.50;4.90;;;9.80;99.90;;;;;;6148450;23;20029;-34
2023/12/17 01:11:36;;;;;;;13.65;4.68;;;9.80;99.90;;;;;;6147488;23;20032;-34
2023/12/17 01:14:02;;;;;;;10.80;4.60;;;9.80;99.90;;;;;;6148151;23;20412;-34
2023/12/17 01:16:29;;;;;;;10.77;4.13;;;9.80;99.90;;;;;;6148509;23;20018;-34
2023/12/17 01:18:55;;;;;;;10.27;4.15;;;9.80;99.90;;;;;;6148838;23;20022;-34
2023/12/17 01:21:21;;;;;;;10.32;4.40;;;9.80;99.90;;;;;;6146016;23;20041;-34
2023/12/17 01:23:47;;;;;;;9.60;4.18;;;9.80;99.90;;;;;;6148725;23;20021;-33
2023/12/17 01:26:22;;;;;;;8.65;4.47;;;9.80;99.90;;;;;;6146620;23;20022;-33
2023/12/17 01:28:49;;;;;;;11.13;4.68;;;9.80;99.90;;;;;;6146098;23;20394;-35
2023/12/17 01:31:15;;;;;;;10.07;4.25;;;9.80;99.90;;;;;;6148163;23;20061;-34
2023/12/17 01:33:41;;;;;;;7.25;3.78;;;9.80;99.90;;;;;;6147832;23;20046;-34
2023/12/17 01:36:07;;;;;;;9.77;4.72;;;9.80;99.90;;;;;;6147897;23;20032;-35
2023/12/17 01:38:33;;;;;;;12.73;4.30;;;9.80;99.90;;;;;;6148021;23;20025;-34
2023/12/17 01:40:58;;;;;;;10.43;4.57;;;9.90;99.90;;;;;;6149662;23;20503;-34
2023/12/17 01:43:24;;;;;;;9.07;4.32;;;9.80;99.90;;;;;;6148181;23;20431;-34
2023/12/17 01:45:52;;;;;;;8.63;4.28;;;9.90;99.90;;;;;;6147671;23;20083;-34
2023/12/17 01:48:18;;;;;;;10.90;4.30;;;9.80;99.90;;;;;;6149369;23;20029;-34
2023/12/17 01:50:44;;;;;;;10.65;3.90;;;9.80;99.90;;;;;;6148699;23;20017;-34
2023/12/17 01:53:12;;;;;;;10.23;4.10;;;9.80;99.90;;;;;;6172430;23;20504;-34
2023/12/17 01:55:38;;;;;;;12.85;4.32;;;9.80;99.90;;;;;;6149313;23;20017;-34
2023/12/17 01:58:04;;;;;;;9.77;4.40;;;9.80;99.90;;;;;;6148332;23;20024;-35
2023/12/17 02:00:29;;;;;;;11.05;4.28;;;9.80;99.90;;;;;;6148916;23;20056;-35
2023/12/17 02:02:55;;;;;;;8.30;3.78;;;9.80;99.90;;;;;;6149022;23;20461;-35
2023/12/17 02:05:21;;;;;;;10.13;4.85;;;9.70;99.90;;;;;;6146646;23;20021;-35
2023/12/17 02:07:47;;;;;;;8.10;4.22;;;9.70;99.90;;;;;;6147519;23;20537;-35
2023/12/17 02:10:13;;;;;;;8.13;3.83;;;9.70;99.90;;;;;;6148537;23;20040;-35
2023/12/17 02:12:39;;;;;;;12.63;4.70;;;9.70;99.90;;;;;;6172408;23;20053;-34
2023/12/17 02:15:06;;;;;;;11.82;4.55;;;9.80;99.90;;;;;;6148909;23;20017;-34
2023/12/17 02:17:32;;;;;;;11.30;4.53;;;9.70;99.90;;;;;;6166758;23;20026;-34
2023/12/17 02:19:58;;;;;;;9.48;4.60;;;9.80;99.90;;;;;;6142357;23;20025;-35
2023/12/17 02:22:25;;;;;;;14.73;4.38;;;9.80;99.90;;;;;;6149113;23;20022;-34
2023/12/17 02:24:54;;;;;;;10.57;4.95;;;9.80;99.90;;;;;;6154534;23;20111;-34
2023/12/17 02:27:21;;;;;;;10.65;4.68;;;9.70;99.90;;;;;;6177126;23;20025;-34
2023/12/17 02:29:47;;;;;;;8.07;4.28;;;9.80;99.90;;;;;;6179495;23;20075;-34
2023/12/17 02:32:14;;;;;;;13.35;5.43;;;9.70;99.90;;;;;;6178456;23;20025;-34
2023/12/17 02:34:40;;;;;;;8.52;4.30;;;9.70;99.90;;;;;;6178018;23;20024;-34
2023/12/17 02:37:06;;;;;;;8.77;4.60;;;9.70;99.90;;;;;;6177681;23;20021;-35
2023/12/17 02:39:31;;;;;;;8.13;4.65;;;9.70;99.90;;;;;;6176317;23;20366;-34
2023/12/17 02:41:58;;;;;;;8.95;4.60;;;9.70;99.90;;;;;;6178269;23;20025;-34
2023/12/17 02:44:24;;;;;;;10.10;4.45;;;9.70;99.90;;;;;;6178150;23;20044;-34
2023/12/17 02:46:50;;;;;;;12.02;5.07;;;9.70;99.90;;;;;;6177335;23;20457;-34
2023/12/17 02:49:16;;;;;;;11.27;4.75;;;9.70;99.90;;;;;;6178647;23;20020;-34
2023/12/17 02:51:42;;;;;;;8.73;4.55;;;9.70;99.90;;;;;;6178263;23;20021;-35
2023/12/17 02:54:08;;;;;;;12.93;4.55;;;9.70;99.90;;;;;;6178624;23;20013;-35
2023/12/17 02:56:43;;;;;;;11.18;5.50;;;9.70;99.90;;;;;;6152740;23;20075;-35
2023/12/17 02:59:09;;;;;;;13.90;5.07;;;9.70;99.90;;;;;;6177522;23;20052;-36
2023/12/17 03:01:35;;;;;;;12.82;5.15;;;9.70;99.90;;;;;;6160612;23;20026;-34
2023/12/17 03:04:04;;;;;;;10.82;5.15;;;9.70;99.90;;;;;;6148310;23;20410;-34
2023/12/17 03:06:29;;;;;;;13.07;4.97;;;9.70;99.90;;;;;;6148191;23;20017;-34
2023/12/17 03:08:55;;;;;;;9.55;4.60;;;9.70;99.90;;;;;;6148752;23;20504;-34
2023/12/17 03:11:21;;;;;;;13.43;4.60;;;9.70;99.90;;;;;;6148512;23;20471;-34
2023/12/17 03:13:47;;;;;;;7.65;4.60;;;9.70;99.90;;;;;;6148816;23;20025;-34
2023/12/17 03:16:12;;;;;;;10.48;4.93;;;9.70;99.90;;;;;;6147096;23;20060;-34
2023/12/17 03:18:38;;;;;;;9.35;4.78;;;9.70;99.90;;;;;;6147711;23;20028;-34
2023/12/17 03:21:07;;;;;;;10.63;4.63;;;9.70;99.90;;;;;;6149409;23;20452;-34
2023/12/17 03:23:36;;;;;;;9.18;4.63;;;9.70;99.90;;;;;;6147078;23;20032;-34
2023/12/17 03:26:03;;;;;;;9.38;4.70;;;9.70;99.90;;;;;;6139073;23;20030;-34
2023/12/17 03:28:28;;;;;;;7.75;4.70;;;9.70;99.90;;;;;;6146077;23;20023;-35
2023/12/17 03:30:54;;;;;;;12.60;4.80;;;9.70;99.90;;;;;;6147159;23;20021;-34
2023/12/17 03:33:20;;;;;;;12.15;5.25;;;9.70;99.90;;;;;;6147713;23;20021;-34
2023/12/17 03:35:46;;;;;;;9.18;4.97;;;9.80;99.90;;;;;;6147326;23;20014;-34
2023/12/17 03:38:13;;;;;;;13.57;4.88;;;9.80;99.90;;;;;;6147653;23;20391;-34
2023/12/17 03:40:39;;;;;;;9.93;5.00;;;9.70;99.90;;;;;;6147808;23;20025;-34
2023/12/17 03:43:04;;;;;;;9.63;4.88;;;9.70;99.90;;;;;;6148199;23;20032;-34
2023/12/17 03:45:31;;;;;;;12.82;4.82;;;9.80;99.90;;;;;;6120322;23;20056;-34
2023/12/17 03:47:57;;;;;;;8.15;4.38;;;9.70;99.90;;;;;;6147890;23;20499;-34
2023/12/17 03:50:23;;;;;;;12.40;5.60;;;9.80;99.90;;;;;;6147118;23;20028;-34
2023/12/17 03:52:49;;;;;;;11.35;5.03;;;9.80;99.90;;;;;;6147364;23;20369;-34
2023/12/17 03:55:15;;;;;;;8.25;4.88;;;9.80;99.90;;;;;;6148585;23;20021;-34
2023/12/17 03:57:41;;;;;;;10.30;4.85;;;9.80;99.90;;;;;;6118311;23;20048;-34
2023/12/17 04:00:10;;;;;;;10.18;4.90;;;9.80;99.90;;;;;;6118430;23;20025;-34
2023/12/17 04:02:36;;;;;;;11.38;4.90;;;9.70;99.90;;;;;;6118067;23;20030;-34
2023/12/17 04:05:02;;;;;;;10.65;4.38;;;9.70;99.90;;;;;;6117818;23;20473;-35
2023/12/17 04:07:30;;;;;;;8.90;4.68;;;9.70;99.90;;;;;;6118459;23;20021;-35
2023/12/17 04:10:00;;;;;;;11.05;5.03;;;9.70;99.90;;;;;;6118881;23;20097;-34
2023/12/17 04:12:26;;;;;;;7.85;4.88;;;9.70;99.90;;;;;;6118152;23;20022;-35
2023/12/17 04:14:52;;;;;;;9.75;5.22;;;9.70;99.90;;;;;;6117583;23;20116;-34
2023/12/17 04:17:18;;;;;;;9.02;4.82;;;9.70;99.90;;;;;;6119807;23;20049;-34
2023/12/17 04:19:43;;;;;;;10.05;4.95;;;9.70;99.90;;;;;;6146651;23;20097;-34
2023/12/17 04:22:09;;;;;;;8.35;4.30;;;9.70;99.90;;;;;;6148429;23;20034;-34
2023/12/17 04:24:35;;;;;;;9.40;4.25;;;9.70;99.90;;;;;;6149533;23;20350;-34
2023/12/17 04:27:00;;;;;;;7.75;4.03;;;9.80;99.90;;;;;;6177541;23;20420;-34
2023/12/17 04:29:26;;;;;;;12.00;4.80;;;9.70;99.90;;;;;;6176425;23;20013;-35
2023/12/17 04:31:52;;;;;;;10.77;4.82;;;9.70;99.90;;;;;;6178687;23;20024;-34
2023/12/17 04:34:18;;;;;;;11.35;4.72;;;9.70;99.90;;;;;;6176992;23;20021;-34
2023/12/17 04:36:43;;;;;;;8.15;4.65;;;9.80;99.90;;;;;;6177686;23;20471;-35
2023/12/17 04:39:12;;;;;;;10.60;5.13;;;9.70;99.90;;;;;;6175411;23;20029;-35
2023/12/17 04:41:39;;;;;;;10.93;3.80;;;9.70;99.90;;;;;;6177690;23;20023;-34
2023/12/17 04:44:05;;;;;;;6.65;4.38;;;9.80;99.90;;;;;;6177113;23;20024;-35
2023/12/17 04:46:31;;;;;;;7.15;4.25;;;9.70;99.90;;;;;;6177270;23;20017;-34
2023/12/17 04:48:57;;;;;;;8.05;4.50;;;9.70;99.90;;;;;;6152082;23;20071;-34
2023/12/17 04:51:22;;;;;;;8.68;4.40;;;9.80;99.90;;;;;;6177721;23;20411;-35
2023/12/17 04:53:51;;;;;;;9.32;4.68;;;9.80;99.90;;;;;;6179376;23;20096;-34
2023/12/17 04:56:18;;;;;;;10.80;4.97;;;9.70;99.90;;;;;;6177709;23;20032;-34
2023/12/17 04:58:44;;;;;;;8.98;4.47;;;9.70;99.90;;;;;;6152402;23;20142;-34
2023/12/17 05:01:10;;;;;;;8.93;4.78;;;9.70;99.90;;;;;;6177929;23;20021;-33
2023/12/17 05:03:36;;;;;;;6.18;3.97;;;9.70;99.90;;;;;;6178485;23;20023;-34
2023/12/17 05:06:02;;;;;;;7.97;3.92;;;9.70;99.90;;;;;;6179880;23;20048;-35
2023/12/17 05:08:28;;;;;;;7.72;4.53;;;9.70;99.90;;;;;;6176765;23;20048;-34
2023/12/17 05:10:54;;;;;;;8.50;3.90;;;9.70;99.90;;;;;;6177683;23;20063;-34
2023/12/17 05:13:20;;;;;;;10.00;4.40;;;9.60;99.90;;;;;;6177238;23;20017;-34
2023/12/17 05:15:46;;;;;;;5.93;3.13;;;9.60;99.90;;;;;;6177645;23;20360;-34
2023/12/17 05:18:12;;;;;;;6.15;2.63;;;9.60;99.90;;;;;;6180766;23;20071;-34
2023/12/17 05:20:37;;;;;;;6.38;3.05;;;9.60;99.90;;;;;;6179125;23;20056;-35
2023/12/17 05:23:03;;;;;;;6.13;3.05;;;9.60;99.90;;;;;;6179677;23;20027;-34
2023/12/17 05:25:29;;;;;;;5.80;3.00;;;9.60;99.90;;;;;;6152912;23;20111;-36
2023/12/17 05:27:55;;;;;;;9.35;3.33;;;9.60;99.90;;;;;;6180420;23;20028;-36
2023/12/17 05:30:22;;;;;;;6.65;3.20;;;9.60;99.90;;;;;;6178935;23;20021;-35
2023/12/17 05:32:48;;;;;;;8.75;3.53;;;9.60;99.90;;;;;;6152558;23;20021;-36
2023/12/17 05:35:14;;;;;;;8.75;3.40;;;9.60;99.90;;;;;;6178173;23;20580;-36
2023/12/17 05:37:40;;;;;;;6.85;3.20;;;9.60;99.90;;;;;;6177146;23;20021;-36
2023/12/17 05:40:06;;;;;;;7.75;3.10;;;9.50;99.90;;;;;;6179251;23;20406;-36
2023/12/17 05:42:32;;;;;;;6.38;3.28;;;9.50;99.90;;;;;;6127423;23;20036;-37
2023/12/17 05:44:58;;;;;;;7.47;3.60;;;9.60;99.90;;;;;;6178847;23;20368;-37
2023/12/17 05:47:23;;;;;;;9.30;3.30;;;9.50;99.90;;;;;;6179768;23;20114;-36
2023/12/17 05:49:49;;;;;;;8.80;3.38;;;9.50;99.90;;;;;;6176790;23;20044;-35
2023/12/17 05:52:15;;;;;;;11.02;3.78;;;9.50;99.90;;;;;;6179078;23;20115;-37
2023/12/17 05:54:44;;;;;;;10.27;3.83;;;9.50;99.90;;;;;;6178370;23;20020;-36
2023/12/17 05:57:09;;;;;;;9.80;4.03;;;9.50;99.90;;;;;;6178015;23;20174;-37
2023/12/17 05:59:35;;;;;;;10.63;4.05;;;9.50;99.90;;;;;;6178055;23;20025;-35
2023/12/17 06:02:01;;;;;;;11.48;4.32;;;9.50;99.90;;;;;;6152109;23;20069;-36
2023/12/17 06:04:27;;;;;;;7.75;3.95;;;9.50;99.90;;;;;;6178582;23;20360;-36
2023/12/17 06:06:53;;;;;;;8.93;4.18;;;9.50;99.90;;;;;;6178236;23;20025;-36
2023/12/17 06:09:19;;;;;;;9.32;4.43;;;9.50;99.90;;;;;;6178565;23;20364;-36
2023/12/17 06:11:45;;;;;;;7.93;3.78;;;9.50;99.90;;;;;;6177181;23;20021;-35
2023/12/17 06:14:11;;;;;;;10.32;3.97;;;9.50;99.90;;;;;;6174119;23;20020;-35
2023/12/17 06:16:41;;;;;;;7.78;4.07;;;9.50;99.90;;;;;;6173310;23;20572;-36
2023/12/17 06:19:07;;;;;;;7.55;4.45;;;9.50;99.90;;;;;;6177258;23;20445;-35
2023/12/17 06:21:33;;;;;;;10.27;4.63;;;9.50;99.90;;;;;;6126017;23;20017;-35
2023/12/17 06:23:59;;;;;;;9.52;4.93;;;9.40;99.90;;;;;;6178762;23;20021;-35
2023/12/17 06:26:25;;;;;;;6.13;3.95;;;9.40;99.90;;;;;;6152103;23;20017;-34
2023/12/17 06:28:50;;;;;;;8.07;4.78;;;9.40;99.90;;;;;;6179170;23;20021;-36
2023/12/17 06:31:16;;;;;;;11.10;4.72;;;9.40;99.90;;;;;;6177463;23;20033;-36
2023/12/17 06:33:42;;;;;;;7.97;4.45;;;9.40;99.90;;;;;;6178161;23;20017;-39
2023/12/17 06:36:08;;;;;;;11.02;4.90;;;9.40;99.90;;;;;;6152550;23;20017;-36
2023/12/17 06:38:34;;;;;;;10.18;4.95;;;9.30;99.90;;;;;;6177491;23;20017;-37
2023/12/17 06:41:00;;;;;;;9.20;5.10;;;9.30;99.90;;;;;;6177351;23;20029;-36
2023/12/17 06:43:25;;;;;;;12.30;5.85;;;9.30;99.90;;;;;;6151689;23;20108;-36
2023/12/17 06:45:51;;;;;;;10.73;5.38;;;9.30;99.90;;;;;;6178162;23;21490;-35
2023/12/17 06:48:18;;;;;;;10.32;6.22;;;9.30;99.90;;;;;;6177773;23;20051;-35
2023/12/17 06:50:43;;;;;;;10.85;6.07;;;9.30;99.90;;;;;;6176940;23;20405;-35
2023/12/17 06:53:15;;;;;;;10.15;5.50;;;9.30;99.90;;;;;;6177795;23;20289;-34
2023/12/17 06:55:41;;;;;;;8.97;5.43;;;9.30;99.90;;;;;;6150894;23;20095;-35
2023/12/17 06:58:07;;;;;;;10.60;5.38;;;9.30;99.90;;;;;;6177782;23;20483;-35
2023/12/17 07:00:34;;;;;;;12.93;6.10;;;9.30;99.90;;;;;;6178128;23;20033;-35
2023/12/17 07:03:00;;;;;;;10.18;5.32;;;9.30;99.90;;;;;;6177095;23;20056;-34
2023/12/17 07:05:26;;;;;;;11.27;4.97;;;9.30;99.90;;;;;;6178045;23;20036;-36
2023/12/17 07:07:51;;;;;;;11.45;5.45;;;9.30;99.90;;;;;;6177337;23;20029;-35
2023/12/17 07:10:17;;;;;;;12.52;5.50;;;9.30;99.90;;;;;;6178193;23;20096;-36
2023/12/17 07:12:43;;;;;;;11.40;5.78;;;9.30;99.90;;;;;;6150635;23;20021;-35
2023/12/17 07:15:09;;;;;;;10.07;5.03;;;9.20;99.90;;;;;;6175923;23;20084;-36
2023/12/17 07:17:35;;;;;;;12.35;5.93;;;9.30;99.90;;;;;;6178687;23;20021;-36
2023/12/17 07:20:01;;;;;;;11.02;5.65;;;9.20;99.90;;;;;;6148802;23;20116;-36
2023/12/17 07:22:26;;;;;;;12.05;5.75;;;9.30;99.90;;;;;;6175715;23;20031;-34
2023/12/17 07:24:52;;;;;;;11.80;5.63;;;9.20;99.90;;;;;;6176627;23;20025;-34
2023/12/17 07:27:18;;;;;;;9.93;5.25;;;9.20;99.90;;;;;;6177461;23;20077;-35
2023/12/17 07:29:43;;;;;;;10.43;5.82;;;9.20;99.90;;;;;;6150230;23;20071;-35
2023/12/17 07:32:09;;;;;;;8.13;4.53;;;9.20;99.90;;;;;;6150765;23;20024;-35
2023/12/17 07:34:35;;;;;;;11.93;5.45;;;9.20;99.90;;;;;;6176540;23;20408;-35
2023/12/17 07:37:00;;;;;;;12.38;5.60;;;9.20;99.90;;;;;;6176525;23;20021;-35
2023/12/17 07:39:27;;;;;;;10.80;5.25;;;9.20;99.90;;;;;;6177609;23;20020;-35
2023/12/17 07:41:53;;;;;;;11.50;6.43;;;9.10;99.90;;;;;;6177215;23;20464;-35
2023/12/17 07:44:18;;;;;;;11.13;6.72;;;9.20;99.90;;;;;;6178906;23;20167;-36
2023/12/17 07:46:44;;;;;;;11.73;6.45;;;9.20;99.90;;;;;;6176272;23;20013;-35
2023/12/17 07:49:10;;;;;;;13.32;6.97;;;9.20;99.90;;;;;;6177715;23;20123;-35
2023/12/17 07:51:38;;;;;;;14.90;6.82;;;9.20;99.90;;;;;;6177626;23;20028;-43
2023/12/17 07:54:05;;;;;;;13.90;7.00;;;9.20;99.90;;;;;;6177076;23;20480;-34
2023/12/17 07:56:32;;;;;;;11.68;6.68;;;9.20;99.90;;;;;;6177490;23;20330;-34
2023/12/17 07:58:57;;;;;;;11.52;6.07;;;9.20;99.90;;;;;;6175630;23;20493;-34
2023/12/17 08:01:30;;;;;;;11.60;7.43;;;9.20;99.90;;;;;;6176288;23;20110;-34
2023/12/17 08:03:57;;;;;;;14.13;6.65;;;9.20;99.90;;;;;;6176713;23;20020;-35
2023/12/17 08:06:26;;;;;;;14.40;7.07;;;9.20;99.90;;;;;;6176180;23;20039;-34
2023/12/17 08:08:53;;;;;;;14.75;7.55;;;9.20;99.90;;;;;;6177087;23;20013;-34
2023/12/17 08:11:19;;;;;;;15.45;7.30;;;9.20;99.90;;;;;;6176201;23;20100;-36
2023/12/17 08:13:46;;;;;;;15.55;7.97;;;9.20;99.90;;;;;;6176925;23;20505;-35
2023/12/17 08:16:12;;;;;;;15.80;7.82;;;9.20;99.90;;;;;;6176187;23;20444;-35
2023/12/17 08:18:37;;;;;;;17.33;8.63;;;9.20;99.90;;;;;;6177702;23;20044;-34
2023/12/17 08:21:03;;;;;;;15.68;7.68;;;9.20;99.90;;;;;;6176111;23;20407;-34
2023/12/17 08:23:29;;;;;;;15.90;8.35;;;9.20;99.90;;;;;;6177578;23;20028;-36
2023/12/17 08:25:54;;;;;;;13.10;7.22;;;9.20;99.90;;;;;;6175583;23;20031;-35
2023/12/17 08:28:21;;;;;;;17.20;8.02;;;9.20;99.90;;;;;;6176675;23;20033;-34
2023/12/17 08:30:48;;;;;;;16.55;7.80;;;9.20;99.90;;;;;;6176341;23;20071;-34
2023/12/17 08:33:14;;;;;;;13.40;7.18;;;9.20;99.90;;;;;;6150694;23;20044;-35
2023/12/17 08:35:41;;;;;;;16.40;8.52;;;9.30;99.90;;;;;;6175150;23;20029;-34
2023/12/17 08:38:07;;;;;;;16.83;8.70;;;9.30;99.90;;;;;;6176526;23;20032;-35
2023/12/17 08:40:34;;;;;;;16.23;8.52;;;9.30;99.90;;;;;;6176301;23;20017;-35
2023/12/17 08:43:03;;;;;;;16.25;8.70;;;9.30;99.90;;;;;;6150004;23;20468;-36
2023/12/17 08:45:29;;;;;;;14.95;8.50;;;9.30;99.90;;;;;;6148850;23;20029;-35
2023/12/17 08:47:55;;;;;;;16.23;8.68;;;9.30;99.90;;;;;;6174727;23;20021;-37
2023/12/17 08:50:21;;;;;;;16.10;8.85;;;9.30;99.90;;;;;;6179201;23;20024;-36
2023/12/17 08:52:47;;;;;;;16.40;9.52;;;9.30;99.90;;;;;;6177430;23;20052;-35
2023/12/17 08:55:13;;;;;;;19.88;10.02;;;9.30;99.90;;;;;;6178487;23;20463;-36
2023/12/17 08:57:38;;;;;;;16.58;9.77;;;9.30;99.90;;;;;;6179070;23;20068;-37
2023/12/17 09:00:05;;;;;;;18.63;10.10;;;9.30;99.90;;;;;;6177872;23;20036;-35
2023/12/17 09:02:31;;;;;;;19.10;10.05;;;9.30;99.90;;;;;;6179065;23;20020;-36
2023/12/17 09:04:57;;;;;;;20.13;8.95;;;9.30;99.90;;;;;;6174945;23;20024;-36
2023/12/17 09:07:23;;;;;;;17.42;9.45;;;9.30;99.90;;;;;;6151295;23;20027;-36
2023/12/17 09:09:49;;;;;;;18.88;10.15;;;9.30;99.90;;;;;;6176657;23;20029;-38
2023/12/17 09:12:16;;;;;;;18.80;8.90;;;9.30;99.90;;;;;;6177393;23;20483;-36
2023/12/17 09:14:42;;;;;;;15.73;8.40;;;9.30;99.90;;;;;;6152126;23;20468;-36
2023/12/17 09:17:08;;;;;;;20.73;10.55;;;9.30;99.90;;;;;;6176877;23;20090;-36
2023/12/17 09:19:34;;;;;;;19.75;10.85;;;9.30;99.90;;;;;;6179905;23;20029;-36
2023/12/17 09:22:00;;;;;;;20.92;10.57;;;9.30;99.90;;;;;;6177002;23;20500;-36
2023/12/17 09:24:25;;;;;;;19.58;10.93;;;9.30;99.90;;;;;;6178118;23;20055;-36
2023/12/17 09:26:51;;;;;;;19.70;10.70;;;9.30;99.90;;;;;;6175358;23;20025;-36
2023/12/17 09:29:16;;;;;;;24.75;11.55;;;9.30;99.90;;;;;;6178955;23;20102;-36
2023/12/17 09:31:43;;;;;;;22.70;11.35;;;9.30;99.90;;;;;;6178262;23;20039;-36
2023/12/17 09:34:09;;;;;;;22.88;11.82;;;9.30;99.90;;;;;;6150168;23;20049;-36
2023/12/17 09:36:35;;;;;;;22.15;9.85;;;9.30;99.90;;;;;;6177566;23;20031;-35
2023/12/17 09:39:00;;;;;;;16.65;9.38;;;9.30;99.90;;;;;;6176378;23;20036;-36
2023/12/17 09:41:26;;;;;;;17.55;9.70;;;9.30;99.90;;;;;;6177131;23;20013;-35
2023/12/17 09:43:52;;;;;;;16.30;9.80;;;9.30;99.90;;;;;;6150843;23;20025;-35
2023/12/17 09:46:18;;;;;;;19.65;9.93;;;9.30;99.90;;;;;;6175244;23;20309;-35
2023/12/17 09:48:44;;;;;;;19.92;9.98;;;9.30;99.90;;;;;;6125611;23;20500;-35
2023/12/17 09:51:12;;;;;;;16.38;9.35;;;9.40;99.90;;;;;;6175342;23;20299;-35
2023/12/17 09:53:38;;;;;;;17.23;9.57;;;9.30;99.90;;;;;;6178335;23;20036;-35
2023/12/17 09:56:04;;;;;;;14.65;9.20;;;9.30;99.90;;;;;;6178550;23;20017;-42
2023/12/17 09:58:30;;;;;;;15.20;8.43;;;9.30;99.90;;;;;;6177201;23;20027;-35
2023/12/17 10:00:55;;;;;;;15.43;8.32;;;9.30;99.90;;;;;;6151750;23;20388;-35
2023/12/17 10:03:21;;;;;;;14.05;7.85;;;9.30;99.90;;;;;;6178215;23;20025;-35
2023/12/17 10:05:51;;;;;;;22.23;7.85;;;9.30;99.90;;;;;;6178579;23;20053;-35
2023/12/17 10:08:17;;;;;;;14.70;8.77;;;9.30;99.90;;;;;;6149336;23;20014;-34
2023/12/17 10:10:43;;;;;;;15.38;7.55;;;9.30;99.90;;;;;;6150004;23;20103;-35
2023/12/17 10:13:09;;;;;;;16.00;7.40;;;9.30;99.90;;;;;;6149164;23;20464;-36
2023/12/17 10:15:36;;;;;;;17.67;8.07;;;9.30;99.90;;;;;;6149773;23;20032;-34
2023/12/17 10:18:03;;;;;;;14.93;8.40;;;9.30;99.90;;;;;;6148130;23;20492;-35
2023/12/17 10:20:29;;;;;;;12.73;7.00;;;9.30;99.90;;;;;;6148743;23;20039;-36
2023/12/17 10:22:59;;;;;;;13.65;7.40;;;9.30;99.90;;;;;;6148923;23;20097;-34
2023/12/17 10:25:26;;;;;;;16.50;8.48;;;9.30;99.90;;;;;;6150273;23;20352;-35
2023/12/17 10:27:56;;;;;;;11.73;7.47;;;9.20;99.90;;;;;;6146633;23;20404;-35
2023/12/17 10:30:27;;;;;;;12.48;7.68;;;9.20;99.90;;;;;;6178966;23;20091;-35
2023/12/17 10:32:57;;;;;;;10.43;6.90;;;9.20;99.90;;;;;;6178472;23;20029;-35
2023/12/17 10:35:24;;;;;;;14.27;6.90;;;9.20;99.90;;;;;;6154084;23;20040;-35
2023/12/17 10:38:00;;;;;;;13.88;7.15;;;9.20;99.90;;;;;;6153237;23;20021;-35
2023/12/17 10:40:28;;;;;;;12.90;7.68;;;9.20;99.90;;;;;;6166339;23;20024;-35
2023/12/17 10:42:56;;;;;;;11.82;7.30;;;9.30;99.90;;;;;;6178096;23;20135;-35
2023/12/17 10:45:22;;;;;;;13.05;7.30;;;9.30;99.90;;;;;;6178552;23;20541;-35
2023/12/17 10:47:52;;;;;;;14.65;7.10;;;9.30;99.90;;;;;;6179430;23;20017;-35
2023/12/17 10:50:18;;;;;;;15.02;8.15;;;9.30;99.90;;;;;;6178037;23;20025;-35
2023/12/17 10:52:46;;;;;;;13.57;6.85;;;9.30;99.90;;;;;;6153344;23;20075;-34
2023/12/17 10:55:11;;;;;;;13.80;7.68;;;9.30;99.90;;;;;;6178400;23;20025;-34
2023/12/17 10:57:39;;;;;;;17.98;8.10;;;9.30;99.90;;;;;;6153010;23;20028;-35
2023/12/17 11:00:07;;;;;;;11.00;7.30;;;9.30;99.90;;;;;;6175794;23;20025;-35
2023/12/17 11:02:33;;;;;;;13.30;8.18;;;9.30;99.90;;;;;;6178597;23;20028;-35
2023/12/17 11:04:59;;;;;;;13.45;8.38;;;9.30;99.90;;;;;;6178558;23;20025;-35
2023/12/17 11:07:26;;;;;;;14.68;8.52;;;9.30;99.90;;;;;;6177503;23;20025;-36
2023/12/17 11:09:52;;;;;;;18.90;9.10;;;9.20;99.90;;;;;;6177967;23;20087;-35
2023/12/17 11:12:21;;;;;;;16.67;10.20;;;9.30;99.90;;;;;;6176496;23;20540;-35
2023/12/17 11:14:46;;;;;;;17.05;9.30;;;9.20;99.90;;;;;;6178170;23;20020;-41
2023/12/17 11:17:14;;;;;;;18.13;9.88;;;9.30;99.90;;;;;;6178095;23;20436;-35
2023/12/17 11:19:59;;;;;;;18.90;10.30;;;9.30;99.90;;;;;;6178267;23;20058;-37
2023/12/17 11:22:25;;;;;;;20.55;10.82;;;9.20;99.90;;;;;;6176548;23;20021;-34
2023/12/17 11:24:56;;;;;;;21.45;12.10;;;9.20;99.90;;;;;;6179030;23;20075;-35
2023/12/17 11:27:22;;;;;;;24.00;11.77;;;9.20;99.90;;;;;;6178832;23;20031;-36
2023/12/17 11:29:52;;;;;;;22.88;12.52;;;9.20;99.90;;;;;;6152283;23;20100;-36
2023/12/17 11:32:24;;;;;;;22.85;13.68;;;9.20;99.90;;;;;;6152248;23;20091;-36
2023/12/17 11:34:50;;;;;;;20.65;11.85;;;9.10;99.90;;;;;;6179084;23;20021;-36
2023/12/17 11:37:18;;;;;;;25.15;12.70;;;9.10;99.90;;;;;;6178872;23;20021;-34
2023/12/17 11:39:49;;;;;;;21.25;12.07;;;9.10;99.90;;;;;;6149863;23;20354;-35
2023/12/17 11:42:16;;;;;;;18.38;10.35;;;9.10;99.90;;;;;;6177497;23;20562;-35
2023/12/17 11:44:51;;;;;;;20.15;11.52;;;9.10;99.90;;;;;;6178870;23;20451;-33
2023/12/17 11:47:25;;;;;;;19.40;10.77;;;9.10;99.90;;;;;;6176483;23;20619;-34
2023/12/17 11:50:01;;;;;;;21.60;11.02;;;9.10;99.90;;;;;;6153071;23;20028;-36
2023/12/17 11:52:26;;;;;;;21.40;10.85;;;9.10;99.90;;;;;;6178974;23;20353;-35
2023/12/17 11:55:01;;;;;;;22.50;12.40;;;9.10;99.90;;;;;;6179367;23;20025;-35
2023/12/17 11:57:27;;;;;;;20.60;12.07;;;9.10;99.90;;;;;;6178879;23;20039;-36
2023/12/17 11:59:53;;;;;;;18.02;10.95;;;9.20;99.90;;;;;;6178887;23;20053;-36
2023/12/17 12:02:21;;;;;;;19.48;11.88;;;9.10;99.90;;;;;;6178526;23;20017;-34
2023/12/17 12:04:47;;;;;;;15.90;8.25;;;9.10;99.90;;;;;;6180351;23;20469;-34
2023/12/17 12:07:18;;;;;;;20.83;12.05;;;9.10;99.90;;;;;;6176678;23;20090;-34
2023/12/17 12:09:48;;;;;;;20.60;10.27;;;9.20;99.90;;;;;;6148335;23;20021;-35
2023/12/17 12:12:26;;;;;;;15.55;9.65;;;9.30;99.90;;;;;;6177009;23;20045;-35
2023/12/17 12:14:52;;;;;;;14.00;8.05;;;9.30;99.90;;;;;;6176864;23;20036;-36
2023/12/17 12:17:40;;;;;;;14.93;9.68;;;9.30;99.90;;;;;;6176829;23;20472;-35
2023/12/17 12:20:08;;;;;;;16.27;9.93;;;9.30;99.90;;;;;;6176768;23;20048;-35
2023/12/17 12:22:37;;;;;;;15.32;9.68;;;9.30;99.90;;;;;;6176529;23;20100;-36
2023/12/17 12:25:04;;;;;;;15.05;9.13;;;9.50;99.90;;;;;;6179289;23;20029;-35
2023/12/17 12:27:30;;;;;;;15.55;9.30;;;9.50;99.90;;;;;;6152825;23;20319;-35
2023/12/17 12:29:57;;;;;;;14.73;8.48;;;9.50;99.90;;;;;;6179529;23;20144;-35
2023/12/17 12:32:29;;;;;;;16.80;9.52;;;9.40;99.90;;;;;;6178423;23;20028;-36
2023/12/17 12:34:55;;;;;;;16.23;9.15;;;9.40;99.90;;;;;;6179879;23;20021;-35
2023/12/17 12:37:35;;;;;;;14.45;8.35;;;9.40;99.90;;;;;;6178204;23;20464;-34
2023/12/17 12:40:03;;;;;;;15.70;9.18;;;9.40;99.90;;;;;;6179482;23;20408;-35
2023/12/17 12:42:29;;;;;;;16.17;9.77;;;9.40;99.90;;;;;;6153258;23;20021;-35
2023/12/17 12:44:55;;;;;;;19.58;10.70;;;9.60;99.90;;;;;;6179450;23;20100;-35